Time;durP1;ratioP1;P1;durP2;ratioP2;P2;SDS_P1;SDS_P2;PMS_P1;PMS_P2;Temp;Humidity;BMP_temperature;BMP_pressure;BME280_temperature;BME280_humidity;BME280_pressure;Samples;Min_cycle;Max_cycle;Signal;HPM_P1;HPM_P2
2022/07/08 00:01:06;;;;;;;1999.90;999.90;;;;;;;17.20;72.20;96240.00;5033296;28;20033;-68
2022/07/08 00:03:31;;;;;;;1999.90;999.90;;;;;;;17.22;71.63;96224.38;5035383;28;20040;-68
2022/07/08 00:05:57;;;;;;;1999.90;999.90;;;;;;;17.03;72.71;96230.06;5034119;28;20026;-68
2022/07/08 00:08:22;;;;;;;1999.90;999.90;;;;;;;17.09;72.46;96234.97;5033432;28;20528;-68
2022/07/08 00:10:47;;;;;;;1999.90;999.90;;;;;;;16.81;72.83;96210.34;5029957;28;20474;-68
2022/07/08 00:13:13;;;;;;;1999.90;999.90;;;;;;;17.26;72.24;96238.75;5030875;28;20100;-68
2022/07/08 00:15:38;;;;;;;1999.90;999.90;;;;;;;17.28;72.24;96223.88;5044705;28;20022;-68
2022/07/08 00:18:03;;;;;;;1999.90;999.90;;;;;;;17.39;71.80;96229.69;5030419;28;20037;-68
2022/07/08 00:20:29;;;;;;;1999.90;999.90;;;;;;;17.54;70.70;96215.72;5030303;28;20037;-68
2022/07/08 00:22:54;;;;;;;1999.90;999.90;;;;;;;17.61;70.38;96226.00;5026779;28;20030;-68
2022/07/08 00:25:20;;;;;;;1999.90;999.90;;;;;;;17.41;71.22;96224.78;5012292;28;20057;-68
2022/07/08 00:27:45;;;;;;;1999.90;999.90;;;;;;;17.44;70.55;96228.72;5029016;28;20025;-69
2022/07/08 00:30:12;;;;;;;1999.90;999.90;;;;;;;17.48;70.30;96200.09;5030001;28;20044;-69
2022/07/08 00:32:38;;;;;;;1999.90;999.90;;;;;;;17.51;71.04;96229.81;5012400;28;20367;-69
2022/07/08 00:35:04;;;;;;;1999.90;999.90;;;;;;;17.87;69.71;96226.72;5010837;28;20036;-68
2022/07/08 00:37:29;;;;;;;1999.90;999.90;;;;;;;17.15;71.73;96228.34;5029875;28;20022;-68
2022/07/08 00:39:55;;;;;;;1999.90;999.90;;;;;;;17.10;72.12;96225.81;5031440;28;20033;-69
2022/07/08 00:42:20;;;;;;;1999.90;999.90;;;;;;;16.37;73.20;96185.34;5029179;28;20032;-68
2022/07/08 00:44:45;;;;;;;1999.90;999.90;;;;;;;16.59;75.09;96221.22;5031715;28;20473;-68
2022/07/08 00:47:11;;;;;;;1999.90;999.90;;;;;;;16.58;75.59;96233.06;5028200;28;20053;-68
2022/07/08 00:49:36;;;;;;;1999.90;999.90;;;;;;;16.42;75.32;96227.34;5030022;28;20025;-69
2022/07/08 00:52:02;;;;;;;1999.90;999.90;;;;;;;16.43;76.11;96233.50;5028827;28;20381;-66
2022/07/08 00:54:27;;;;;;;1999.90;999.90;;;;;;;16.63;75.48;96212.22;5030813;28;20107;-68
2022/07/08 00:56:54;;;;;;;1999.90;999.90;;;;;;;16.96;73.41;96224.41;5020840;28;20049;-68
2022/07/08 00:59:20;;;;;;;1999.90;999.90;;;;;;;16.83;74.32;96221.56;5029777;28;20521;-68
2022/07/08 01:01:45;;;;;;;1999.90;999.90;;;;;;;16.67;74.69;96230.38;5029688;28;20033;-69
2022/07/08 01:04:11;;;;;;;1999.90;999.90;;;;;;;16.77;74.73;96222.03;5031422;28;20033;-69
2022/07/08 01:06:37;;;;;;;1999.90;999.90;;;;;;;16.84;73.98;96212.41;5029425;28;20034;-68
2022/07/08 01:09:03;;;;;;;1999.90;999.90;;;;;;;16.75;74.77;96221.56;5028042;28;20025;-68
2022/07/08 01:11:28;;;;;;;1999.90;999.90;;;;;;;17.42;72.20;96221.00;5030205;28;20033;-68
2022/07/08 01:13:54;;;;;;;1999.90;999.90;;;;;;;17.29;72.51;96224.66;5031134;28;20034;-68
2022/07/08 01:16:20;;;;;;;1999.90;999.90;;;;;;;17.02;73.27;96215.84;5023974;28;20398;-68
2022/07/08 01:18:45;;;;;;;1999.90;999.90;;;;;;;17.00;72.99;96223.44;5033805;28;20168;-69
2022/07/08 01:21:11;;;;;;;1999.90;999.90;;;;;;;17.01;72.91;96210.81;5017586;28;20161;-68
2022/07/08 01:23:36;;;;;;;1999.90;999.90;;;;;;;17.57;71.58;96228.53;5030651;28;20373;-68
2022/07/08 01:26:09;;;;;;;1999.90;999.90;;;;;;;17.49;71.11;96215.91;5028584;28;20021;-68
2022/07/08 01:28:36;;;;;;;1999.90;999.90;;;;;;;16.81;73.11;96221.09;5029999;28;20528;-68
2022/07/08 01:31:03;;;;;;;1999.90;999.90;;;;;;;16.98;72.74;96227.56;5028374;28;20046;-68
2022/07/08 01:33:28;;;;;;;1999.90;999.90;;;;;;;16.79;73.52;96235.97;5028934;28;20379;-68
2022/07/08 01:35:54;;;;;;;1999.90;999.90;;;;;;;17.12;72.35;96223.59;5030133;28;20026;-68
2022/07/08 01:38:19;;;;;;;1999.90;999.90;;;;;;;17.64;70.87;96234.19;5029831;28;20033;-69
2022/07/08 01:40:44;;;;;;;1999.90;999.90;;;;;;;17.70;69.93;96226.72;5028397;28;20025;-68
2022/07/08 01:43:10;;;;;;;1999.90;999.90;;;;;;;17.78;70.13;96241.31;5027701;28;20033;-68
2022/07/08 01:45:35;;;;;;;1999.90;999.90;;;;;;;17.47;70.81;96220.03;5029420;28;20029;-69
2022/07/08 01:48:01;;;;;;;1999.90;999.90;;;;;;;17.45;70.52;96230.31;5027893;28;20026;-68
2022/07/08 01:50:26;;;;;;;1999.90;999.90;;;;;;;17.56;70.78;96236.94;5030109;28;20060;-68
2022/07/08 01:52:51;;;;;;;1999.90;999.90;;;;;;;17.58;70.21;96242.78;5026723;28;20072;-68
2022/07/08 01:55:17;;;;;;;1999.90;999.90;;;;;;;17.14;71.44;96242.84;5030319;28;20029;-68
2022/07/08 01:57:42;;;;;;;1999.90;999.90;;;;;;;17.12;71.86;96234.34;5029056;28;20056;-69
2022/07/08 02:00:08;;;;;;;1999.90;999.90;;;;;;;17.30;70.81;96236.97;5027921;28;20029;-68
2022/07/08 02:02:33;;;;;;;1999.90;999.90;;;;;;;17.18;72.05;96247.63;5026311;28;20075;-67
2022/07/08 02:04:59;;;;;;;1999.90;999.90;;;;;;;17.65;70.38;96253.81;5029881;28;20042;-68
2022/07/08 02:07:24;;;;;;;1999.90;999.90;;;;;;;17.51;70.04;96234.44;5027103;28;20072;-68
2022/07/08 02:09:49;;;;;;;1999.90;999.90;;;;;;;17.55;69.85;96249.56;5043983;28;20075;-68
2022/07/08 02:12:20;;;;;;;1999.90;999.90;;;;;;;17.87;68.77;96220.53;5027971;28;20096;-68
2022/07/08 02:15:03;;;;;;;1999.90;999.90;;;;;;;17.61;69.60;96229.47;5029156;28;20049;-68
2022/07/08 02:17:33;;;;;;;1999.90;999.90;;;;;;;18.43;66.92;96258.88;5027075;28;20059;-68
2022/07/08 02:19:59;;;;;;;1999.90;999.90;;;;;;;18.63;66.35;96251.91;5028776;28;20144;-68
2022/07/08 02:22:24;;;;;;;1999.90;999.90;;;;;;;17.18;69.51;96266.44;5025607;28;20099;-69
2022/07/08 02:24:50;;;;;;;1999.90;999.90;;;;;;;16.85;70.49;96237.38;5029101;28;20093;-68
2022/07/08 02:27:17;;;;;;;1999.90;999.90;;;;;;;16.72;70.17;96265.19;5028396;28;20025;-68
2022/07/08 02:29:43;;;;;;;1999.90;999.90;;;;;;;16.69;69.75;96263.91;5027996;28;20032;-69
2022/07/08 02:32:08;;;;;;;1999.90;999.90;;;;;;;16.35;70.88;96254.69;5026449;28;20021;-68
2022/07/08 02:34:33;;;;;;;1999.90;999.90;;;;;;;16.58;69.31;96263.41;5029233;28;20110;-67
2022/07/08 02:36:59;;;;;;;1999.90;999.90;;;;;;;16.43;70.02;96269.25;5027856;28;20486;-68
2022/07/08 02:39:24;;;;;;;1999.90;999.90;;;;;;;16.92;69.37;96291.44;5029307;28;20033;-67
2022/07/08 02:41:49;;;;;;;1999.90;999.90;;;;;;;16.69;69.12;96289.97;5028030;28;20022;-68
2022/07/08 02:44:15;;;;;;;1999.90;999.90;;;;;;;16.58;66.58;96274.16;5029328;28;20047;-68
2022/07/08 02:46:41;;;;;;;1999.90;999.90;;;;;;;16.21;64.64;96296.97;5026405;28;20427;-69
2022/07/08 02:49:08;;;;;;;1999.90;999.90;;;;;;;16.05;64.96;96298.50;5028647;28;20037;-68
2022/07/08 02:51:34;;;;;;;1999.90;999.90;;;;;;;16.08;64.45;96290.63;5025261;28;20120;-67
2022/07/08 02:54:00;;;;;;;1999.90;999.90;;;;;;;15.79;64.42;96306.44;5029635;28;20037;-69
2022/07/08 02:56:25;;;;;;;1999.90;999.90;;;;;;;15.88;65.41;96304.59;5028834;28;20025;-68
2022/07/08 02:58:50;;;;;;;1999.90;999.90;;;;;;;15.75;65.96;96306.25;5028662;28;20036;-67
2022/07/08 03:01:16;;;;;;;1999.90;999.90;;;;;;;16.13;65.33;96305.00;5027157;28;20524;-68
2022/07/08 03:03:41;;;;;;;1999.90;999.90;;;;;;;15.26;67.13;96301.84;5028086;28;20040;-69
2022/07/08 03:06:06;;;;;;;1999.90;999.90;;;;;;;16.10;66.38;96312.56;5028560;28;20029;-67
2022/07/08 03:08:32;;;;;;;1999.90;999.90;;;;;;;16.65;63.33;96322.03;5027720;28;20060;-68
2022/07/08 03:10:57;;;;;;;1999.90;999.90;;;;;;;15.54;65.99;96299.81;5027909;28;20026;-68
2022/07/08 03:13:22;;;;;;;1999.90;999.90;;;;;;;16.06;64.46;96338.44;5027245;28;20033;-68
2022/07/08 03:15:48;;;;;;;1999.90;999.90;;;;;;;15.83;64.23;96344.97;5028627;28;20037;-68
2022/07/08 03:18:13;;;;;;;1999.90;999.90;;;;;;;16.56;61.19;96358.84;5026752;28;20643;-67
2022/07/08 03:20:39;;;;;;;1999.90;999.90;;;;;;;16.31;62.21;96352.28;5027977;28;20040;-69
2022/07/08 03:23:04;;;;;;;1999.90;999.90;;;;;;;15.95;63.13;96331.75;5027014;28;20042;-69
2022/07/08 03:25:30;;;;;;;1999.90;999.90;;;;;;;16.58;61.62;96329.75;5028273;28;20146;-68
2022/07/08 03:27:56;;;;;;;1999.90;999.90;;;;;;;16.80;60.57;96347.69;5028443;28;20485;-68
2022/07/08 03:30:21;;;;;;;1999.90;999.90;;;;;;;16.89;59.75;96343.94;5027927;28;20466;-68
2022/07/08 03:32:46;;;;;;;1999.90;999.90;;;;;;;16.80;60.11;96363.81;5027126;28;20026;-68
2022/07/08 03:35:12;;;;;;;1999.90;999.90;;;;;;;16.07;60.90;96366.88;5028250;28;20029;-69
2022/07/08 03:37:44;;;;;;;1999.90;999.90;;;;;;;16.71;60.46;96368.34;5028378;28;20118;-68
2022/07/08 03:42:55;;;;;;;1999.90;999.90;;;;;;;16.21;62.05;96387.44;5009230;28;20127;-69
2022/07/08 03:45:20;;;;;;;1999.90;999.90;;;;;;;16.10;59.98;96379.66;5026231;28;20068;-69
2022/07/08 03:47:45;;;;;;;1999.90;999.90;;;;;;;15.84;61.14;96382.22;5024477;28;20021;-68
2022/07/08 03:50:11;;;;;;;1999.90;999.90;;;;;;;15.36;61.17;96392.75;5031911;28;20024;-68
2022/07/08 03:52:36;;;;;;;1999.90;999.90;;;;;;;15.93;59.17;96393.00;5030784;28;20030;-69
2022/07/08 03:55:02;;;;;;;1999.90;999.90;;;;;;;15.37;60.00;96397.00;5032447;28;20036;-70
2022/07/08 03:57:27;;;;;;;1999.90;999.90;;;;;;;15.49;59.79;96404.50;5030659;28;20037;-68
2022/07/08 03:59:52;;;;;;;1999.90;999.90;;;;;;;15.49;57.93;96421.38;5032029;28;20030;-68
2022/07/08 04:02:18;;;;;;;1999.90;999.90;;;;;;;15.44;58.50;96410.78;5029032;28;20382;-68
2022/07/08 04:04:43;;;;;;;1999.90;999.90;;;;;;;15.46;57.94;96413.16;5031361;28;20155;-69
2022/07/08 04:07:08;;;;;;;1999.90;999.90;;;;;;;16.00;57.99;96430.13;5031593;28;20026;-68
2022/07/08 04:09:34;;;;;;;1999.90;999.90;;;;;;;15.70;57.13;96413.69;5029999;28;20468;-68
2022/07/08 04:11:59;;;;;;;1999.90;999.90;;;;;;;15.85;56.63;96424.03;5029475;28;20156;-69
2022/07/08 04:14:24;;;;;;;1999.90;999.90;;;;;;;16.14;56.59;96438.13;5031309;28;20091;-68
2022/07/08 04:16:49;;;;;;;1999.90;999.90;;;;;;;15.30;57.04;96434.16;5027936;28;20073;-68
2022/07/08 04:19:15;;;;;;;1999.90;999.90;;;;;;;15.75;56.85;96428.84;5030067;28;20111;-68
2022/07/08 04:21:40;;;;;;;1999.90;999.90;;;;;;;15.36;57.38;96437.53;5029614;28;20080;-68
2022/07/08 04:24:06;;;;;;;1999.90;999.90;;;;;;;15.31;56.87;96433.06;5031185;28;20033;-69
2022/07/08 04:26:31;;;;;;;1999.90;999.90;;;;;;;15.51;55.82;96446.03;5031270;28;20025;-68
2022/07/08 04:29:00;;;;;;;1999.90;999.90;;;;;;;15.41;55.66;96446.25;5031189;28;20047;-68
2022/07/08 04:31:26;;;;;;;1999.90;999.90;;;;;;;15.46;55.43;96430.06;5027312;28;20040;-68
2022/07/08 04:33:53;;;;;;;1999.90;999.90;;;;;;;16.33;53.89;96462.84;5031924;28;20811;-69
2022/07/08 04:36:19;;;;;;;1999.90;999.90;;;;;;;16.04;54.24;96450.69;5031318;28;20028;-69
2022/07/08 04:38:45;;;;;;;1999.90;999.90;;;;;;;15.94;54.56;96458.97;5032026;28;20029;-69
2022/07/08 04:41:10;;;;;;;1999.90;999.90;;;;;;;15.54;55.35;96461.50;5028593;28;20098;-68
2022/07/08 04:43:35;;;;;;;1999.90;999.90;;;;;;;15.86;54.58;96452.44;5031750;28;20470;-69
2022/07/08 04:46:01;;;;;;;1999.90;999.90;;;;;;;16.53;53.47;96456.97;5027682;28;20057;-69
2022/07/08 04:48:26;;;;;;;1999.90;999.90;;;;;;;16.56;52.83;96440.19;5030920;28;20032;-68
2022/07/08 04:50:51;;;;;;;1999.90;999.90;;;;;;;16.98;51.68;96439.88;5029050;28;20061;-70
2022/07/08 04:53:16;;;;;;;1999.90;999.90;;;;;;;17.31;51.31;96456.41;5029851;28;20028;-68
2022/07/08 04:55:42;;;;;;;1999.90;999.90;;;;;;;16.86;52.59;96452.03;5030960;28;20470;-68
2022/07/08 04:58:07;;;;;;;1999.90;999.90;;;;;;;16.84;52.64;96459.63;5030867;28;20028;-69
2022/07/08 05:00:33;;;;;;;1999.90;999.90;;;;;;;17.43;50.02;96453.88;5028078;28;20045;-68
2022/07/08 05:02:59;;;;;;;1999.90;999.90;;;;;;;17.76;50.59;96464.19;5021183;28;20038;-68
2022/07/08 05:05:26;;;;;;;1999.90;999.90;;;;;;;18.02;49.49;96446.13;5030410;28;20029;-68
2022/07/08 05:07:51;;;;;;;1999.90;999.90;;;;;;;17.68;49.49;96439.63;5030340;28;20773;-69
2022/07/08 05:10:18;;;;;;;1999.90;999.90;;;;;;;17.14;51.46;96468.69;5028525;28;20075;-68
2022/07/08 05:12:45;;;;;;;1999.90;999.90;;;;;;;17.63;49.65;96471.31;5029785;28;20048;-67
2022/07/08 05:15:11;;;;;;;1999.90;999.90;;;;;;;17.71;50.25;96467.00;5029855;28;20521;-68
2022/07/08 05:17:39;;;;;;;1999.90;999.90;;;;;;;17.32;50.15;96452.59;5028468;28;20677;-69
2022/07/08 05:20:07;;;;;;;1999.90;999.90;;;;;;;17.54;50.94;96476.66;5029165;28;20022;-69
2022/07/08 05:22:32;;;;;;;1999.90;999.90;;;;;;;17.13;51.24;96479.78;5029167;28;20508;-68
2022/07/08 05:24:58;;;;;;;1999.90;999.90;;;;;;;17.23;51.79;96484.06;5030676;28;20029;-67
2022/07/08 05:27:23;;;;;;;1999.90;999.90;;;;;;;17.38;51.40;96492.47;5027422;28;20029;-69
2022/07/08 05:29:49;;;;;;;1999.90;999.90;;;;;;;17.06;52.25;96492.88;5029530;28;20040;-68
2022/07/08 05:32:14;;;;;;;1999.90;999.90;;;;;;;17.35;51.67;96476.16;5026801;28;20171;-68
2022/07/08 05:34:41;;;;;;;1999.90;999.90;;;;;;;17.49;51.46;96494.88;5027672;28;20032;-68
2022/07/08 05:37:07;;;;;;;1999.90;999.90;;;;;;;17.70;50.14;96485.06;5029399;28;20067;-68
2022/07/08 05:39:33;;;;;;;1999.90;999.90;;;;;;;17.71;49.32;96477.78;5029506;28;20049;-68
2022/07/08 05:41:58;;;;;;;1999.90;999.90;;;;;;;17.82;50.12;96473.72;5030513;28;20100;-68
2022/07/08 05:44:23;;;;;;;1999.90;999.90;;;;;;;17.70;50.47;96470.81;5028231;28;20124;-69
2022/07/08 05:46:49;;;;;;;1999.90;999.90;;;;;;;17.06;51.66;96466.78;5026507;28;20029;-68
2022/07/08 05:49:14;;;;;;;1999.90;999.90;;;;;;;17.38;50.58;96489.78;5019927;28;20852;-70
2022/07/08 05:51:39;;;;;;;1999.90;999.90;;;;;;;17.03;51.01;96488.91;5029492;28;20180;-68
2022/07/08 05:54:05;;;;;;;1999.90;999.90;;;;;;;17.22;50.78;96501.31;5029060;28;20036;-70
2022/07/08 05:56:30;;;;;;;1999.90;999.90;;;;;;;17.15;50.27;96499.88;5028119;28;20034;-69
2022/07/08 05:58:55;;;;;;;1999.90;999.90;;;;;;;17.19;50.33;96510.78;5029953;28;20033;-68
2022/07/08 06:01:20;;;;;;;1999.90;999.90;;;;;;;16.70;50.46;96511.84;5026442;28;20037;-69
2022/07/08 06:03:46;;;;;;;1999.90;999.90;;;;;;;17.08;50.25;96501.41;5027375;28;20033;-68
2022/07/08 06:06:11;;;;;;;1999.90;999.90;;;;;;;17.95;48.93;96501.56;5029390;28;20539;-69
2022/07/08 06:08:36;;;;;;;1999.90;999.90;;;;;;;16.99;50.88;96496.00;5029311;28;20474;-68
2022/07/08 06:11:02;;;;;;;1999.90;999.90;;;;;;;16.14;51.82;96460.38;5027355;28;20037;-64
2022/07/08 06:13:28;;;;;;;1999.90;999.90;;;;;;;15.95;52.59;96476.66;5028481;28;20033;-64
2022/07/08 06:15:53;;;;;;;1999.90;999.90;;;;;;;16.35;51.25;96517.03;5027765;28;20500;-65
2022/07/08 06:18:18;;;;;;;1999.90;999.90;;;;;;;16.25;52.44;96495.81;5027678;28;20474;-64
2022/07/08 06:20:44;;;;;;;1999.90;999.90;;;;;;;16.27;51.15;96509.72;5027576;28;20057;-65
2022/07/08 06:23:09;;;;;;;1999.90;999.90;;;;;;;16.32;52.11;96517.63;5026391;28;20120;-65
2022/07/08 06:25:35;;;;;;;1999.90;999.90;;;;;;;15.71;53.20;96519.09;5029084;28;20449;-65
2022/07/08 06:28:00;;;;;;;1999.90;999.90;;;;;;;16.30;51.44;96495.69;5028882;28;20052;-64
2022/07/08 06:30:26;;;;;;;1999.90;999.90;;;;;;;16.45;51.13;96516.00;5027307;28;20037;-64
2022/07/08 06:32:51;;;;;;;1999.90;999.90;;;;;;;16.18;50.55;96533.84;5026886;28;20478;-66
2022/07/08 06:35:16;;;;;;;1999.90;999.90;;;;;;;16.66;49.78;96497.44;5027280;28;20108;-65
2022/07/08 06:37:42;;;;;;;1999.90;999.90;;;;;;;16.64;49.92;96495.88;5029751;28;20022;-65
2022/07/08 06:40:08;;;;;;;1999.90;999.90;;;;;;;16.37;50.43;96523.66;5028138;28;20060;-66
2022/07/08 06:42:33;;;;;;;1999.90;999.90;;;;;;;17.29;49.51;96485.50;5027625;28;20029;-66
2022/07/08 06:44:58;;;;;;;1999.90;999.90;;;;;;;16.73;48.67;96522.00;5026845;28;20040;-66
2022/07/08 06:47:23;;;;;;;1999.90;999.90;;;;;;;16.64;49.93;96514.69;5027682;28;20106;-66
2022/07/08 06:49:50;;;;;;;1999.90;999.90;;;;;;;16.30;49.82;96498.38;5027604;28;20041;-65
2022/07/08 06:52:15;;;;;;;1999.90;999.90;;;;;;;16.46;49.14;96515.66;5027665;28;20061;-66
2022/07/08 06:54:41;;;;;;;1999.90;999.90;;;;;;;16.81;48.78;96523.94;5027952;28;20028;-66
2022/07/08 06:57:07;;;;;;;1999.90;999.90;;;;;;;16.64;48.83;96495.09;5026855;28;20025;-65
2022/07/08 06:59:34;;;;;;;1999.90;999.90;;;;;;;16.78;48.94;96513.81;5029112;28;20036;-66
2022/07/08 07:01:59;;;;;;;1999.90;999.90;;;;;;;17.31;47.70;96512.88;5027412;28;20021;-66
2022/07/08 07:04:26;;;;;;;1999.90;999.90;;;;;;;17.75;45.98;96508.38;5025711;28;20034;-66
2022/07/08 07:06:52;;;;;;;1999.90;999.90;;;;;;;18.56;44.80;96532.69;5024991;28;20497;-67
2022/07/08 07:09:17;;;;;;;1999.90;999.90;;;;;;;17.19;47.05;96507.31;5028541;28;20029;-65
2022/07/08 07:11:42;;;;;;;1999.90;999.90;;;;;;;17.25;47.52;96514.13;5026070;28;20083;-66
2022/07/08 07:14:08;;;;;;;1999.90;999.90;;;;;;;18.80;44.53;96494.44;5027873;28;20061;-65
2022/07/08 07:16:33;;;;;;;1999.90;999.90;;;;;;;18.61;43.43;96499.38;5026724;28;20025;-65
2022/07/08 07:18:59;;;;;;;1999.90;999.90;;;;;;;18.77;44.98;96532.03;5026066;28;20036;-66
2022/07/08 07:21:24;;;;;;;1999.90;999.90;;;;;;;18.77;44.66;96526.63;5028476;28;20032;-66
2022/07/08 07:23:49;;;;;;;1999.90;999.90;;;;;;;18.76;43.50;96496.19;5033265;28;20030;-65
2022/07/08 07:26:15;;;;;;;1999.90;999.90;;;;;;;18.02;44.54;96520.75;5031102;28;20070;-66
2022/07/08 07:28:40;;;;;;;1999.90;999.90;;;;;;;20.10;42.08;96506.31;5033220;28;20080;-65
2022/07/08 07:31:06;;;;;;;1999.90;999.90;;;;;;;20.25;40.75;96522.69;5028453;28;20029;-66
2022/07/08 07:33:32;;;;;;;1999.90;999.90;;;;;;;20.96;40.89;96518.94;5031019;28;20021;-65
2022/07/08 07:35:57;;;;;;;1999.90;999.90;;;;;;;19.11;42.61;96531.88;5027816;28;20083;-65
2022/07/08 07:38:22;;;;;;;1999.90;999.90;;;;;;;19.18;42.61;96520.59;5013208;28;20028;-64
2022/07/08 07:40:48;;;;;;;1999.90;999.90;;;;;;;18.79;43.29;96524.41;5025267;28;20113;-64
2022/07/08 07:43:13;;;;;;;1999.90;999.90;;;;;;;18.81;43.36;96522.19;5031125;28;20030;-64
2022/07/08 07:45:38;;;;;;;1999.90;999.90;;;;;;;18.20;45.19;96538.44;5030378;28;20029;-64
2022/07/08 07:48:04;;;;;;;1999.90;999.90;;;;;;;19.31;43.32;96534.97;5030156;28;20109;-64
2022/07/08 07:50:29;;;;;;;1999.90;999.90;;;;;;;18.84;44.35;96518.84;5030046;28;20393;-64
2022/07/08 07:52:54;;;;;;;1999.90;999.90;;;;;;;18.89;44.48;96549.13;5029518;28;20060;-64
2022/07/08 07:55:20;;;;;;;1999.90;999.90;;;;;;;18.77;44.81;96529.31;5029555;28;20052;-64
2022/07/08 07:57:47;;;;;;;1999.90;999.90;;;;;;;18.66;45.61;96543.13;5027720;28;20481;-64
2022/07/08 08:00:13;;;;;;;1999.90;999.90;;;;;;;18.81;45.54;96535.66;5032096;28;20537;-65
2022/07/08 08:02:39;;;;;;;1999.90;999.90;;;;;;;18.45;45.99;96539.53;5030595;28;20033;-63
2022/07/08 08:05:05;;;;;;;1999.90;999.90;;;;;;;18.83;45.48;96541.50;5026510;28;20141;-64
2022/07/08 08:07:30;;;;;;;1999.90;999.90;;;;;;;18.38;46.27;96523.06;5027694;28;20033;-64
2022/07/08 08:09:56;;;;;;;1999.90;999.90;;;;;;;18.62;46.99;96550.25;5029138;28;20025;-64
2022/07/08 08:12:21;;;;;;;1999.90;999.90;;;;;;;19.04;45.19;96553.19;5031455;28;20466;-64
2022/07/08 08:14:46;;;;;;;1999.90;999.90;;;;;;;20.12;42.64;96531.91;5030885;28;20504;-63
2022/07/08 08:17:12;;;;;;;1999.90;999.90;;;;;;;19.30;44.44;96546.88;5034402;28;20025;-64
2022/07/08 08:19:37;;;;;;;1999.90;999.90;;;;;;;19.09;44.85;96555.72;5029731;28;20052;-62
2022/07/08 08:22:03;;;;;;;1999.90;999.90;;;;;;;18.80;44.87;96480.16;5018638;28;20459;-63
2022/07/08 08:24:28;;;;;;;1999.90;999.90;;;;;;;19.36;43.59;96488.91;5012743;28;20037;-63
2022/07/08 08:26:53;;;;;;;1999.90;999.90;;;;;;;18.50;46.79;96563.59;5012549;28;20034;-63
2022/07/08 08:29:19;;;;;;;1999.90;999.90;;;;;;;18.28;46.51;96569.19;5012113;28;20025;-62
2022/07/08 08:31:44;;;;;;;1999.90;999.90;;;;;;;19.21;45.20;96546.91;5031301;28;20029;-62
2022/07/08 08:34:09;;;;;;;1999.90;999.90;;;;;;;20.28;42.99;96569.91;5034112;28;20176;-63
2022/07/08 08:36:35;;;;;;;1999.90;999.90;;;;;;;20.37;42.77;96559.00;5050758;28;20017;-62
2022/07/08 08:39:03;;;;;;;1999.90;999.90;;;;;;;19.35;44.30;96555.59;5046226;28;20044;-64
2022/07/08 08:41:29;;;;;;;1999.90;999.90;;;;;;;19.37;44.88;96541.75;5029095;28;20021;-64
2022/07/08 08:43:55;;;;;;;1999.90;999.90;;;;;;;20.20;43.71;96547.22;5040083;28;20021;-64
2022/07/08 08:46:24;;;;;;;1999.90;999.90;;;;;;;19.34;44.51;96551.28;5048856;28;20116;-64
2022/07/08 08:48:55;;;;;;;1999.90;999.90;;;;;;;18.20;47.48;96549.22;5030926;28;20100;-67
2022/07/08 08:51:21;;;;;;;1999.90;999.90;;;;;;;18.11;47.78;96569.97;5031400;28;20041;-65
2022/07/08 08:53:47;;;;;;;1999.90;999.90;;;;;;;18.12;48.02;96561.59;5031573;28;20094;-65
2022/07/08 08:56:14;;;;;;;1999.90;999.90;;;;;;;18.68;46.60;96575.97;5035851;28;20021;-64
2022/07/08 08:58:42;;;;;;;1999.90;999.90;;;;;;;18.01;48.30;96556.81;5032562;28;20072;-65
2022/07/08 09:01:08;;;;;;;1999.90;999.90;;;;;;;19.19;47.17;96576.09;5029838;28;20017;-66
2022/07/08 09:03:35;;;;;;;1999.90;999.90;;;;;;;19.36;45.31;96576.03;5028524;28;20150;-64
2022/07/08 09:06:00;;;;;;;1999.90;999.90;;;;;;;19.47;44.91;96571.84;5030769;28;20029;-64
2022/07/08 09:08:25;;;;;;;1999.90;999.90;;;;;;;20.63;43.46;96575.00;5031533;28;20410;-65
2022/07/08 09:10:51;;;;;;;1999.90;999.90;;;;;;;21.21;42.46;96575.78;5032940;28;20060;-64
2022/07/08 09:13:16;;;;;;;1999.90;999.90;;;;;;;20.65;42.16;96564.66;5051520;28;20025;-64
2022/07/08 09:15:50;;;;;;;1999.90;999.90;;;;;;;19.60;43.11;96537.66;5037122;28;20036;-64
2022/07/08 09:18:20;;;;;;;1999.90;999.90;;;;;;;19.97;43.62;96557.59;5028684;28;20375;-65
2022/07/08 09:20:48;;;;;;;1999.90;999.90;;;;;;;18.21;45.26;96585.03;5031222;28;20029;-65
2022/07/08 09:23:15;;;;;;;1999.90;999.90;;;;;;;19.91;42.49;96574.28;5031506;28;20508;-64
2022/07/08 09:25:41;;;;;;;1999.90;999.90;;;;;;;19.18;43.40;96578.00;5028600;28;20393;-65
2022/07/08 09:28:06;;;;;;;1999.90;999.90;;;;;;;18.72;44.99;96559.16;5050815;28;20112;-65
2022/07/08 09:30:32;;;;;;;1999.90;999.90;;;;;;;19.87;42.80;96532.91;5041097;28;20082;-66
2022/07/08 09:32:59;;;;;;;1999.90;999.90;;;;;;;19.54;43.88;96570.53;5028526;28;20477;-66
2022/07/08 09:35:33;;;;;;;1999.90;999.90;;;;;;;19.40;44.16;96563.50;5028838;28;20034;-66
2022/07/08 09:38:03;;;;;;;1999.90;999.90;;;;;;;18.63;44.59;96516.00;5029707;28;20057;-65
2022/07/08 09:40:29;;;;;;;1999.90;999.90;;;;;;;18.79;44.91;96573.72;5030456;28;20720;-66
2022/07/08 09:42:54;;;;;;;1999.90;999.90;;;;;;;18.46;45.76;96581.50;5039637;28;20064;-66
2022/07/08 09:45:26;;;;;;;1999.90;999.90;;;;;;;19.99;42.53;96560.75;5025051;28;20124;-67
2022/07/08 09:47:52;;;;;;;1999.90;999.90;;;;;;;21.13;41.12;96561.22;5029853;28;20025;-66
2022/07/08 09:50:17;;;;;;;1999.90;999.90;;;;;;;21.11;40.04;96554.59;5027542;28;20059;-66
2022/07/08 09:52:42;;;;;;;1999.90;999.90;;;;;;;20.62;39.74;96517.44;5028515;28;20091;-67
2022/07/08 09:55:08;;;;;;;1999.90;999.90;;;;;;;20.62;40.31;96535.56;5028114;28;20049;-66
2022/07/08 09:57:33;;;;;;;1999.90;999.90;;;;;;;20.08;41.45;96551.78;5042961;28;20107;-67
2022/07/08 09:59:59;;;;;;;1999.90;999.90;;;;;;;19.94;42.06;96585.25;5043705;28;20381;-66
2022/07/08 10:02:27;;;;;;;1999.90;999.90;;;;;;;19.83;41.80;96577.88;5029152;28;20045;-66
2022/07/08 10:04:52;;;;;;;1999.90;999.90;;;;;;;20.76;40.61;96563.09;5028271;28;20478;-69
2022/07/08 10:07:18;;;;;;;1999.90;999.90;;;;;;;21.03;40.18;96567.06;5030719;28;20029;-69
2022/07/08 10:09:43;;;;;;;1999.90;999.90;;;;;;;22.28;37.81;96550.06;5030289;28;20071;-69
2022/07/08 10:12:14;;;;;;;1999.90;999.90;;;;;;;21.83;38.24;96584.72;5029829;28;20075;-69
2022/07/08 10:14:41;;;;;;;1999.90;999.90;;;;;;;20.72;39.67;96573.78;5029039;28;20029;-70
2022/07/08 10:17:10;;;;;;;1999.90;999.90;;;;;;;20.34;40.07;96555.06;5029776;28;20059;-69
2022/07/08 10:19:40;;;;;;;1999.90;999.90;;;;;;;19.12;42.72;96581.22;5028676;28;20061;-65
2022/07/08 10:22:09;;;;;;;1999.90;999.90;;;;;;;19.46;43.53;96572.19;5030066;28;20392;-68
2022/07/08 10:24:39;;;;;;;1999.90;999.90;;;;;;;19.26;43.73;96560.22;5028566;28;20049;-67
2022/07/08 10:27:05;;;;;;;1999.90;999.90;;;;;;;20.74;40.45;96557.25;5034026;28;20059;-70
2022/07/08 10:29:32;;;;;;;1999.90;999.90;;;;;;;20.49;41.14;96572.59;5033354;28;20529;-69
2022/07/08 10:31:59;;;;;;;1999.90;999.90;;;;;;;19.62;43.29;96575.16;5028965;28;20540;-69
2022/07/08 10:34:34;;;;;;;1999.90;999.90;;;;;;;20.26;42.33;96572.91;5029860;28;20026;-69
2022/07/08 10:37:01;;;;;;;1999.90;999.90;;;;;;;19.86;41.63;96561.00;5027726;28;20025;-69
2022/07/08 10:39:31;;;;;;;1999.90;999.90;;;;;;;19.64;42.10;96562.88;5018589;28;20040;-70
2022/07/08 10:42:04;;;;;;;1999.90;999.90;;;;;;;20.45;41.04;96579.75;5047171;28;20039;-69
2022/07/08 10:44:44;;;;;;;1999.90;999.90;;;;;;;20.66;39.43;96572.41;5049431;28;20048;-67
2022/07/08 10:47:22;;;;;;;1999.90;999.90;;;;;;;21.10;39.51;96553.81;5039406;28;20033;-67
2022/07/08 10:49:49;;;;;;;1999.90;999.90;;;;;;;20.18;39.76;96568.38;5028038;28;20017;-68
2022/07/08 10:52:21;;;;;;;1999.90;999.90;;;;;;;20.00;40.53;96524.50;5030034;28;20030;-68